Time;durP1;ratioP1;P1;durP2;ratioP2;P2;SDS_P1;SDS_P2;PMS_P1;PMS_P2;Temp;Humidity;BMP_temperature;BMP_pressure;BME280_temperature;BME280_humidity;BME280_pressure;Samples;Min_cycle;Max_cycle;Signal;HPM_P1;HPM_P2
2023/10/23 00:01:35;;;;;;;5.35;3.55;;;;;;;9.67;100.00;101246.44;5089728;28;20355;-35
2023/10/23 00:04:01;;;;;;;4.95;3.25;;;;;;;9.50;100.00;101240.69;5089584;28;20107;-35
2023/10/23 00:06:26;;;;;;;3.47;2.80;;;;;;;9.50;100.00;101232.59;5089773;28;20118;-35
2023/10/23 00:08:52;;;;;;;6.33;3.60;;;;;;;9.51;100.00;101250.44;5081476;28;20029;-35
2023/10/23 00:11:24;;;;;;;4.65;3.05;;;;;;;9.49;100.00;101249.84;5076866;28;20021;-35
2023/10/23 00:13:50;;;;;;;5.00;2.70;;;;;;;9.47;100.00;101256.50;5076206;28;20035;-35
2023/10/23 00:16:15;;;;;;;4.60;2.92;;;;;;;9.40;100.00;101251.13;5076366;28;20452;-35
2023/10/23 00:18:41;;;;;;;4.45;3.28;;;;;;;9.40;100.00;101256.50;5076105;28;20029;-35
2023/10/23 00:21:08;;;;;;;4.43;3.83;;;;;;;9.41;100.00;101260.88;5076592;28;20028;-35
2023/10/23 00:23:33;;;;;;;4.47;3.25;;;;;;;9.31;100.00;101247.00;5076001;28;20020;-35
2023/10/23 00:25:59;;;;;;;15.75;13.55;;;;;;;9.44;100.00;101244.25;5076264;28;20039;-35
2023/10/23 00:28:24;;;;;;;6.40;4.70;;;;;;;9.50;100.00;101254.19;5075709;28;20036;-35
2023/10/23 00:30:49;;;;;;;4.97;3.00;;;;;;;9.45;100.00;101254.00;5076279;28;20507;-35
2023/10/23 00:33:14;;;;;;;5.97;4.30;;;;;;;9.48;100.00;101244.66;5075916;28;20111;-35
2023/10/23 00:35:40;;;;;;;3.93;3.57;;;;;;;9.52;100.00;101251.28;5076191;28;20506;-35
2023/10/23 00:38:05;;;;;;;7.90;6.60;;;;;;;9.53;100.00;101255.66;5075479;28;20298;-35
2023/10/23 00:40:31;;;;;;;7.90;6.43;;;;;;;9.60;100.00;101248.34;5076279;28;20036;-35
2023/10/23 00:42:56;;;;;;;5.47;3.90;;;;;;;9.47;100.00;101248.41;5075476;28;20029;-35
2023/10/23 00:45:22;;;;;;;6.30;3.92;;;;;;;9.46;100.00;101250.25;5076196;28;20271;-35
2023/10/23 00:47:48;;;;;;;4.68;3.92;;;;;;;9.47;100.00;101257.34;5075518;28;20365;-35
2023/10/23 00:50:14;;;;;;;5.00;4.40;;;;;;;9.40;100.00;101247.59;5075847;28;20112;-35
2023/10/23 00:52:40;;;;;;;4.72;3.72;;;;;;;9.42;100.00;101254.44;5075513;28;20037;-35
2023/10/23 00:55:06;;;;;;;6.35;3.92;;;;;;;9.37;100.00;101253.41;5075534;28;20036;-35
2023/10/23 00:57:32;;;;;;;5.20;3.30;;;;;;;9.28;100.00;101250.13;5075479;28;20047;-35
2023/10/23 00:59:58;;;;;;;4.18;3.67;;;;;;;9.26;100.00;101252.19;5076235;28;20024;-35
2023/10/23 01:02:24;;;;;;;5.72;4.68;;;;;;;9.31;100.00;101265.06;5075575;28;20032;-35
2023/10/23 01:04:50;;;;;;;7.50;4.78;;;;;;;9.10;100.00;101245.41;5075796;28;20107;-35
2023/10/23 01:07:15;;;;;;;7.28;5.38;;;;;;;9.26;100.00;101263.81;5074842;28;20032;-35
2023/10/23 01:09:41;;;;;;;3.73;3.13;;;;;;;9.09;100.00;101256.41;5075161;28;20032;-35
2023/10/23 01:12:06;;;;;;;6.60;5.77;;;;;;;9.11;100.00;101267.81;5075680;28;20262;-35
2023/10/23 01:14:31;;;;;;;6.72;5.45;;;;;;;9.15;100.00;101274.44;5074829;28;20025;-35
2023/10/23 01:16:57;;;;;;;5.10;3.77;;;;;;;9.05;100.00;101279.44;5074956;28;20025;-35
2023/10/23 01:19:22;;;;;;;4.13;3.03;;;;;;;9.03;100.00;101280.50;5075079;28;20047;-35
2023/10/23 01:21:47;;;;;;;3.93;3.37;;;;;;;9.03;100.00;101280.50;5074684;28;20735;-35
2023/10/23 01:24:14;;;;;;;4.50;3.50;;;;;;;8.99;100.00;101273.84;5075439;28;20116;-35
2023/10/23 01:26:40;;;;;;;4.70;3.65;;;;;;;8.98;100.00;101271.38;5075399;28;20418;-35
2023/10/23 01:29:05;;;;;;;5.87;3.37;;;;;;;9.01;100.00;101281.72;5075020;28;20024;-35
2023/10/23 01:31:31;;;;;;;5.50;3.63;;;;;;;9.02;100.00;101281.50;5074707;28;20020;-35
2023/10/23 01:33:56;;;;;;;6.50;4.35;;;;;;;9.00;100.00;101278.22;5074592;28;20032;-35
2023/10/23 01:36:22;;;;;;;5.10;3.53;;;;;;;8.94;100.00;101272.84;5074645;28;20448;-35
2023/10/23 01:38:47;;;;;;;6.43;3.40;;;;;;;8.97;100.00;101283.19;5074538;28;20484;-35
2023/10/23 01:41:12;;;;;;;7.53;4.77;;;;;;;8.97;100.00;101275.09;5074809;28;20028;-35
2023/10/23 01:43:37;;;;;;;8.13;5.70;;;;;;;8.97;100.00;101264.31;5074240;28;20032;-35
2023/10/23 01:46:03;;;;;;;5.40;4.07;;;;;;;8.91;100.00;101267.84;5075326;28;20028;-35
2023/10/23 01:48:28;;;;;;;4.80;3.38;;;;;;;8.88;100.00;101263.72;5074643;28;20033;-35
2023/10/23 01:50:54;;;;;;;5.22;3.90;;;;;;;8.91;100.00;101274.06;5074297;28;20043;-35
2023/10/23 01:53:19;;;;;;;8.43;6.03;;;;;;;8.85;100.00;101258.72;5073043;28;20024;-35
2023/10/23 01:55:44;;;;;;;7.33;5.03;;;;;;;8.77;100.00;101245.44;5074790;28;20077;-35
2023/10/23 01:58:10;;;;;;;5.87;4.60;;;;;;;8.79;100.00;101262.28;5074723;28;20294;-35
2023/10/23 02:00:35;;;;;;;8.67;4.07;;;;;;;8.86;100.00;101273.88;5074741;28;20040;-35
2023/10/23 02:03:01;;;;;;;4.40;3.37;;;;;;;8.82;100.00;101272.63;5074696;28;20063;-35
2023/10/23 02:05:26;;;;;;;5.68;4.10;;;;;;;8.86;100.00;101273.03;5074331;28;20028;-35
2023/10/23 02:07:51;;;;;;;6.80;4.07;;;;;;;8.82;100.00;101264.53;5074076;28;20064;-35
2023/10/23 02:10:17;;;;;;;6.53;4.07;;;;;;;8.82;100.00;101272.63;5074293;28;20469;-36
2023/10/23 02:12:42;;;;;;;6.90;4.73;;;;;;;8.75;100.00;101266.41;5074758;28;20368;-35
2023/10/23 02:15:10;;;;;;;6.00;3.70;;;;;;;8.77;100.00;101264.31;5073656;28;20048;-35
2023/10/23 02:17:35;;;;;;;4.88;3.67;;;;;;;8.69;100.00;101280.75;5073809;28;20422;-35
2023/10/23 02:20:01;;;;;;;6.73;3.83;;;;;;;8.69;100.00;101268.09;5074160;28;20109;-35
2023/10/23 02:22:26;;;;;;;6.43;4.60;;;;;;;8.78;100.00;101279.47;5073551;28;20469;-35
2023/10/23 02:24:51;;;;;;;7.17;4.70;;;;;;;8.74;100.00;101289.03;5073808;28;20461;-35
2023/10/23 02:27:17;;;;;;;6.83;4.53;;;;;;;8.72;100.00;101285.69;5073420;28;20333;-35
2023/10/23 02:29:42;;;;;;;5.32;4.15;;;;;;;8.73;100.00;101290.88;5074038;28;20027;-35
2023/10/23 02:32:08;;;;;;;5.90;3.83;;;;;;;8.60;100.00;101292.75;5074025;28;20039;-35
2023/10/23 02:34:37;;;;;;;;;;;;;;;8.77;100.00;101294.00;5073743;28;20029;-35
2023/10/23 02:37:03;;;;;;;6.78;4.53;;;;;;;8.81;100.00;101289.00;5074375;28;19974;-35
2023/10/23 02:39:28;;;;;;;6.75;3.78;;;;;;;8.67;100.00;101291.72;5073629;28;20461;-35
2023/10/23 02:41:54;;;;;;;8.57;4.03;;;;;;;8.68;100.00;101300.63;5073551;28;20033;-35
2023/10/23 02:44:19;;;;;;;8.80;3.77;;;;;;;8.70;100.00;101306.66;5073494;28;20052;-35
2023/10/23 02:46:44;;;;;;;6.90;4.20;;;;;;;8.62;100.00;101304.97;5073245;28;20274;-35
2023/10/23 02:49:10;;;;;;;6.18;4.47;;;;;;;8.69;100.00;101305.00;5074003;28;20023;-35
2023/10/23 02:51:38;;;;;;;5.93;4.07;;;;;;;8.62;100.00;101314.94;5074055;28;20104;-35
2023/10/23 02:54:04;;;;;;;7.57;4.50;;;;;;;8.61;100.00;101313.28;5073094;28;20491;-35
2023/10/23 02:56:30;;;;;;;7.68;4.35;;;;;;;8.66;100.00;101305.41;5074059;28;20125;-35
2023/10/23 02:58:55;;;;;;;8.75;5.05;;;;;;;8.60;100.00;101288.19;5073394;28;20056;-35
2023/10/23 03:01:23;;;;;;;8.67;6.20;;;;;;;8.71;100.00;101309.13;5073690;28;20081;-35
2023/10/23 03:03:49;;;;;;;6.10;4.75;;;;;;;8.67;100.00;101297.09;5073321;28;20311;-35
2023/10/23 03:06:14;;;;;;;10.07;4.50;;;;;;;8.59;100.00;101299.16;5073595;28;20425;-35
2023/10/23 03:08:39;;;;;;;6.63;4.87;;;;;;;8.56;100.00;101294.22;5073293;28;20115;-35
2023/10/23 03:11:05;;;;;;;11.30;5.00;;;;;;;8.55;100.00;101296.06;5072995;28;20377;-35
2023/10/23 03:13:31;;;;;;;9.00;3.92;;;;;;;8.47;100.00;101307.88;5072990;28;20298;-35
2023/10/23 03:15:56;;;;;;;;;;;;;;;8.60;100.00;101300.84;5074244;28;20040;-35
2023/10/23 03:18:22;;;;;;;7.57;4.88;;;;;;;8.59;100.00;101304.56;5073131;28;19913;-35
2023/10/23 03:20:47;;;;;;;8.80;5.07;;;;;;;8.56;100.00;101302.28;5073755;28;20039;-35
2023/10/23 03:23:13;;;;;;;6.73;4.20;;;;;;;8.39;100.00;101307.22;5073240;28;20025;-35
2023/10/23 03:25:38;;;;;;;5.80;3.83;;;;;;;8.33;100.00;101306.16;5073962;28;20099;-35
2023/10/23 03:28:03;;;;;;;6.50;4.30;;;;;;;8.39;100.00;101297.28;5073149;28;20118;-35
2023/10/23 03:30:29;;;;;;;6.88;4.95;;;;;;;8.40;100.00;101300.84;5073356;28;20421;-35
2023/10/23 03:32:54;;;;;;;7.50;4.57;;;;;;;8.43;100.00;101314.72;5073313;28;20036;-35
2023/10/23 03:35:20;;;;;;;9.87;4.27;;;;;;;8.31;100.00;101308.25;5073344;28;20056;-35
2023/10/23 03:37:45;;;;;;;7.40;3.90;;;;;;;8.21;100.00;101305.13;5073264;28;20029;-35
2023/10/23 03:40:11;;;;;;;7.35;4.82;;;;;;;8.32;100.00;101303.69;5073038;28;20263;-35
2023/10/23 03:42:36;;;;;;;6.78;4.75;;;;;;;8.35;100.00;101314.88;5073403;28;20098;-35
2023/10/23 03:45:05;;;;;;;6.97;4.80;;;;;;;8.33;100.00;101311.56;5076740;28;20029;-35
2023/10/23 03:47:31;;;;;;;5.97;4.32;;;;;;;8.21;100.00;101310.50;5076632;28;20099;-35
2023/10/23 03:49:56;;;;;;;6.70;4.65;;;;;;;8.28;100.00;101314.03;5077200;28;20042;-35
2023/10/23 03:52:21;;;;;;;5.47;4.27;;;;;;;8.25;100.00;101309.91;5076668;28;20031;-35
2023/10/23 03:54:47;;;;;;;6.25;4.60;;;;;;;8.21;100.00;101302.44;5077156;28;20045;-35
2023/10/23 03:57:12;;;;;;;5.27;4.20;;;;;;;8.21;100.00;101307.81;5077187;28;20403;-35
2023/10/23 03:59:41;;;;;;;6.07;4.18;;;;;;;8.09;100.00;101309.44;5076778;28;20263;-35
2023/10/23 04:02:07;;;;;;;10.02;5.60;;;;;;;8.23;100.00;101313.81;5076345;28;20025;-35
2023/10/23 04:04:32;;;;;;;6.90;5.07;;;;;;;8.18;100.00;101313.59;5077013;28;20134;-35
2023/10/23 04:06:57;;;;;;;7.17;5.50;;;;;;;8.20;100.00;101309.69;5076928;28;20051;-35
2023/10/23 04:09:23;;;;;;;7.53;4.97;;;;;;;8.18;100.00;101321.69;5076334;28;20269;-35
2023/10/23 04:11:48;;;;;;;6.20;4.60;;;;;;;8.21;100.00;101318.59;5076567;28;20047;-35
2023/10/23 04:14:13;;;;;;;5.27;4.33;;;;;;;8.17;100.00;101326.25;5076508;28;20498;-35
2023/10/23 04:16:39;;;;;;;5.67;4.37;;;;;;;8.04;100.00;101317.28;5075925;28;20291;-35
2023/10/23 04:19:04;;;;;;;6.13;4.27;;;;;;;8.06;100.00;101326.00;5076446;28;20071;-35
2023/10/23 04:21:29;;;;;;;6.13;4.70;;;;;;;8.03;100.00;101331.78;5076112;28;20043;-35
2023/10/23 04:23:55;;;;;;;9.00;5.40;;;;;;;7.93;100.00;101308.75;5076328;28;20028;-35
2023/10/23 04:26:20;;;;;;;4.80;3.93;;;;;;;7.95;100.00;101325.56;5076058;28;20409;-35
2023/10/23 04:28:46;;;;;;;8.38;4.72;;;;;;;8.01;100.00;101318.53;5076223;28;20036;-35
2023/10/23 04:31:11;;;;;;;7.15;5.47;;;;;;;7.93;100.00;101316.00;5075683;28;20400;-35
2023/10/23 04:33:37;;;;;;;6.72;4.88;;;;;;;7.96;100.00;101323.69;5075823;28;20035;-35
2023/10/23 04:36:02;;;;;;;10.57;5.03;;;;;;;7.95;100.00;101327.41;5076688;28;20029;-35
2023/10/23 04:38:28;;;;;;;6.70;4.57;;;;;;;7.92;100.00;101320.56;5075977;28;20414;-35
2023/10/23 04:40:54;;;;;;;5.95;4.10;;;;;;;7.89;100.00;101331.75;5075798;28;20495;-35
2023/10/23 04:43:20;;;;;;;9.68;4.82;;;;;;;7.84;100.00;101323.44;5075370;28;20074;-35
2023/10/23 04:45:46;;;;;;;7.65;4.57;;;;;;;7.76;100.00;101310.16;5075446;28;20029;-35
2023/10/23 04:48:11;;;;;;;7.88;5.10;;;;;;;7.79;100.00;101325.06;5075651;28;20099;-35
2023/10/23 04:50:38;;;;;;;7.07;4.80;;;;;;;7.80;100.00;101327.56;5075200;28;20032;-35
2023/10/23 04:53:05;;;;;;;8.00;5.03;;;;;;;7.82;100.00;101319.28;5075712;28;20271;-35
2023/10/23 04:55:35;;;;;;;8.15;4.82;;;;;;;7.77;100.00;101322.59;5076241;28;20024;-35
2023/10/23 04:58:01;;;;;;;7.93;4.57;;;;;;;7.65;100.00;101316.94;5074916;28;20040;-35
2023/10/23 05:00:27;;;;;;;;;;;;;;;7.85;100.00;101325.09;5075505;28;20032;-35
2023/10/23 05:02:52;;;;;;;5.18;3.95;;;;;;;7.63;100.00;101308.22;5075827;28;19908;-35
2023/10/23 05:05:17;;;;;;;7.77;5.30;;;;;;;7.71;100.00;101313.47;5075551;28;20036;-35
2023/10/23 05:07:43;;;;;;;6.83;5.20;;;;;;;7.69;100.00;101323.56;5075511;28;20297;-35
2023/10/23 05:10:09;;;;;;;6.17;4.20;;;;;;;7.66;100.00;101315.06;5075498;28;20054;-35
2023/10/23 05:12:35;;;;;;;10.15;4.32;;;;;;;7.63;100.00;101310.09;5075023;28;20115;-35
2023/10/23 05:15:01;;;;;;;10.65;4.72;;;;;;;7.67;100.00;101324.81;5074839;28;20157;-35
2023/10/23 05:17:26;;;;;;;11.95;5.10;;;;;;;7.70;100.00;101324.41;5074905;28;20031;-35
2023/10/23 05:19:52;;;;;;;8.80;5.30;;;;;;;7.83;100.00;101326.34;5075557;28;20033;-35
2023/10/23 05:22:17;;;;;;;13.70;5.40;;;;;;;7.73;100.00;101315.94;5075002;28;20056;-35
2023/10/23 05:24:46;;;;;;;11.57;5.03;;;;;;;7.74;100.00;101322.97;5074946;28;20024;-35
2023/10/23 05:27:17;;;;;;;9.02;4.65;;;;;;;7.71;100.00;101323.38;5074438;28;20090;-35
2023/10/23 05:29:42;;;;;;;10.68;4.50;;;;;;;7.70;100.00;101321.72;5075557;28;20062;-36
2023/10/23 05:32:08;;;;;;;11.70;4.32;;;;;;;7.68;100.00;101323.78;5074488;28;20067;-36
2023/10/23 05:34:33;;;;;;;6.53;2.93;;;;;;;7.66;100.00;101317.75;5074666;28;20025;-36
2023/10/23 05:36:59;;;;;;;8.57;3.97;;;;;;;7.61;100.00;101312.16;5074639;28;20028;-36
2023/10/23 05:39:25;;;;;;;5.82;3.38;;;;;;;7.63;100.00;101315.47;5074340;28;20466;-36
2023/10/23 05:41:50;;;;;;;4.75;3.15;;;;;;;7.63;100.00;101300.16;5075382;28;20056;-36
2023/10/23 05:44:16;;;;;;;5.70;3.20;;;;;;;7.67;100.00;101305.97;5075362;28;20097;-36
2023/10/23 05:46:41;;;;;;;4.87;3.13;;;;;;;7.67;100.00;101316.75;5075078;28;20048;-36
2023/10/23 05:49:06;;;;;;;5.63;3.27;;;;;;;7.61;100.00;101314.84;5074203;28;20029;-36
2023/10/23 05:51:32;;;;;;;4.80;3.03;;;;;;;7.65;100.00;101322.31;5074428;28;20029;-36
2023/10/23 05:53:57;;;;;;;4.93;3.73;;;;;;;7.73;100.00;101315.94;5073994;28;20021;-36
2023/10/23 05:56:23;;;;;;;6.70;3.45;;;;;;;7.66;100.00;101321.31;5074534;28;20076;-36
2023/10/23 05:58:50;;;;;;;4.70;3.87;;;;;;;7.60;100.00;101316.69;5075075;28;20020;-36
2023/10/23 06:01:15;;;;;;;7.82;3.30;;;;;;;7.62;100.00;101324.59;5074193;28;20261;-36
2023/10/23 06:03:41;;;;;;;8.80;3.88;;;;;;;7.54;100.00;101314.00;5074092;28;20103;-36
2023/10/23 06:06:07;;;;;;;7.00;3.58;;;;;;;7.57;100.00;101322.50;5073864;28;20028;-36
2023/10/23 06:08:33;;;;;;;5.95;3.30;;;;;;;7.57;100.00;101321.69;5073989;28;20051;-36
2023/10/23 06:10:59;;;;;;;5.70;3.08;;;;;;;7.62;100.00;101325.44;5074594;28;20071;-36
2023/10/23 06:13:24;;;;;;;;;;;;;;;7.71;100.00;101323.38;5074394;28;20028;-36
2023/10/23 06:15:50;;;;;;;9.98;3.38;;;;;;;7.61;100.00;101330.97;5073770;28;19961;-36
2023/10/23 06:18:15;;;;;;;4.18;3.55;;;;;;;7.42;100.00;101292.22;5073538;28;20484;-36
2023/10/23 06:20:41;;;;;;;5.43;3.67;;;;;;;7.58;100.00;101334.09;5073661;28;20060;-36
2023/10/23 06:23:06;;;;;;;5.03;3.60;;;;;;;7.60;100.00;101327.47;5073847;28;20020;-36
2023/10/23 06:25:32;;;;;;;4.50;3.90;;;;;;;7.52;100.00;101324.97;5074215;28;20480;-36
2023/10/23 06:27:58;;;;;;;6.57;4.78;;;;;;;7.46;100.00;101321.19;5073483;28;20078;-36
2023/10/23 06:30:24;;;;;;;6.65;4.13;;;;;;;7.56;100.00;101330.75;5073439;28;20078;-36
2023/10/23 06:32:49;;;;;;;7.82;3.25;;;;;;;7.51;100.00;101317.88;5074228;28;20115;-36
2023/10/23 06:35:15;;;;;;;6.22;3.63;;;;;;;7.56;100.00;101334.28;5074055;28;20125;-36
2023/10/23 06:37:41;;;;;;;;;;;;;;;7.68;100.00;101329.16;5074812;28;20518;-36
2023/10/23 06:40:07;;;;;;;11.75;3.00;;;;;;;7.62;100.00;101329.97;5074144;28;19990;-36
2023/10/23 06:42:33;;;;;;;6.78;2.95;;;;;;;7.58;100.00;101318.78;5072562;28;20032;-36
2023/10/23 06:44:58;;;;;;;20.98;3.42;;;;;;;7.44;100.00;101309.78;5073573;28;20020;-36
2023/10/23 06:47:24;;;;;;;10.73;3.22;;;;;;;7.62;100.00;101336.19;5073753;28;20052;-36
2023/10/23 06:49:50;;;;;;;15.88;3.38;;;;;;;7.63;100.00;101337.84;5073639;28;20095;-36
2023/10/23 06:52:15;;;;;;;11.07;3.30;;;;;;;7.67;100.00;101332.91;5074175;28;20107;-35
2023/10/23 06:54:41;;;;;;;14.10;3.67;;;;;;;7.60;100.00;101321.25;5073480;28;20070;-36
2023/10/23 06:57:06;;;;;;;27.40;4.40;;;;;;;7.65;100.00;101330.38;5073954;28;20052;-36
2023/10/23 06:59:36;;;;;;;24.95;4.32;;;;;;;7.62;100.00;101325.44;5073730;28;20543;-34
2023/10/23 07:02:01;;;;;;;46.90;4.50;;;;;;;7.52;100.00;101314.19;5073646;28;20508;-34
2023/10/23 07:04:27;;;;;;;29.83;4.40;;;;;;;7.60;100.00;101316.69;5073340;28;20068;-34
2023/10/23 07:06:53;;;;;;;23.17;3.80;;;;;;;7.73;100.00;101324.03;5073656;28;20111;-33
2023/10/23 07:09:19;;;;;;;20.60;3.53;;;;;;;7.75;100.00;101324.63;5073279;28;20039;-35
2023/10/23 07:11:50;;;;;;;12.38;3.33;;;;;;;7.82;100.00;101325.50;5073347;28;20036;-36
2023/10/23 07:14:16;;;;;;;24.75;4.00;;;;;;;7.76;100.00;101315.56;5073896;28;20039;-36
2023/10/23 07:16:42;;;;;;;15.83;4.07;;;;;;;7.95;100.00;101332.78;5073781;28;20028;-36
2023/10/23 07:19:08;;;;;;;9.90;3.88;;;;;;;7.95;100.00;101330.94;5075108;28;20274;-36
2023/10/23 07:21:33;;;;;;;21.92;4.15;;;;;;;7.96;100.00;101319.16;5077599;28;20025;-36
2023/10/23 07:23:58;;;;;;;27.93;4.30;;;;;;;7.95;100.00;101314.78;5076880;28;20027;-36
2023/10/23 07:26:24;;;;;;;14.23;3.90;;;;;;;8.05;100.00;101318.94;5077349;28;20278;-36
2023/10/23 07:28:50;;;;;;;11.73;3.60;;;;;;;8.06;100.00;101323.31;5078062;28;20099;-36
2023/10/23 07:31:16;;;;;;;9.63;3.90;;;;;;;8.08;100.00;101321.25;5076825;28;20024;-36
2023/10/23 07:33:42;;;;;;;20.15;4.47;;;;;;;8.07;100.00;101322.28;5077307;28;20032;-36
2023/10/23 07:36:10;;;;;;;11.25;4.70;;;;;;;7.97;100.00;101307.34;5077289;28;20426;-36
2023/10/23 07:38:36;;;;;;;4.78;4.03;;;;;;;8.14;100.00;101320.41;5076868;28;20132;-36
2023/10/23 07:41:02;;;;;;;5.07;4.15;;;;;;;8.16;100.00;101315.69;5077473;28;20411;-36
2023/10/23 07:43:29;;;;;;;6.47;4.30;;;;;;;8.21;100.00;101303.25;5077385;28;20111;-36
2023/10/23 07:45:54;;;;;;;;;;;;;;;8.35;100.00;101308.69;5077287;28;20099;-36
2023/10/23 07:48:23;;;;;;;9.35;4.45;;;;;;;8.43;100.00;101320.09;5076739;28;19912;-36
2023/10/23 07:50:48;;;;;;;7.43;4.35;;;;;;;8.45;100.00;101315.34;5076719;28;20067;-36
2023/10/23 07:53:14;;;;;;;6.53;3.85;;;;;;;8.54;100.00;101324.06;5077488;28;20064;-36
2023/10/23 07:55:39;;;;;;;9.15;4.60;;;;;;;8.65;100.00;101330.72;5076922;28;20079;-36
2023/10/23 07:58:05;;;;;;;7.33;4.17;;;;;;;8.74;100.00;101338.41;5076855;28;20467;-36
2023/10/23 08:00:30;;;;;;;5.00;4.10;;;;;;;8.83;100.00;101336.31;5076577;28;20025;-36
2023/10/23 08:02:56;;;;;;;6.53;4.53;;;;;;;8.89;100.00;101340.88;5076808;28;20032;-36
2023/10/23 08:05:22;;;;;;;7.65;4.25;;;;;;;8.86;100.00;101322.41;5076755;28;20316;-36
2023/10/23 08:07:47;;;;;;;6.85;4.40;;;;;;;8.87;100.00;101309.75;5076367;28;20435;-36
2023/10/23 08:10:13;;;;;;;6.67;4.03;;;;;;;9.03;100.00;101320.13;5076702;28;20130;-36
2023/10/23 08:12:39;;;;;;;;;;;;;;;9.13;100.00;101319.72;5076983;28;20025;-36
2023/10/23 08:15:04;;;;;;;5.80;4.07;;;;;;;9.13;100.00;101320.53;5076551;28;19916;-36
2023/10/23 08:17:30;;;;;;;7.45;4.30;;;;;;;9.19;100.00;101317.00;5076352;28;20309;-36
2023/10/23 08:19:55;;;;;;;7.20;4.37;;;;;;;9.13;100.00;101298.13;5076270;28;20036;-36
2023/10/23 08:22:20;;;;;;;6.13;4.40;;;;;;;9.25;100.00;101299.13;5076717;28;20314;-36
2023/10/23 08:24:46;;;;;;;8.57;4.83;;;;;;;9.34;100.00;101308.66;5076118;28;20036;-36
2023/10/23 08:27:11;;;;;;;7.40;4.77;;;;;;;9.37;100.00;101299.28;5075782;28;20273;-36
2023/10/23 08:29:37;;;;;;;7.45;4.75;;;;;;;9.39;100.00;101298.06;5076084;28;20115;-35
2023/10/23 08:32:03;;;;;;;8.27;4.80;;;;;;;9.50;100.00;101313.59;5076779;28;20025;-35
2023/10/23 08:34:28;;;;;;;6.25;4.47;;;;;;;9.55;100.00;101305.66;5076142;28;20098;-35
2023/10/23 08:36:54;;;;;;;7.40;4.57;;;;;;;9.61;100.00;101301.28;5076353;28;20425;-35
2023/10/23 08:39:19;;;;;;;9.50;4.87;;;;;;;9.69;100.00;101324.53;5076342;28;20419;-35
2023/10/23 08:41:45;;;;;;;11.50;5.13;;;;;;;9.74;100.00;101314.75;5075791;28;20255;-35
2023/10/23 08:44:11;;;;;;;7.85;5.80;;;;;;;9.75;100.00;101320.97;5075726;28;20071;-35
2023/10/23 08:46:37;;;;;;;9.93;5.00;;;;;;;9.78;100.00;101315.97;5076218;28;20456;-35
2023/10/23 08:49:03;;;;;;;10.00;6.10;;;;;;;9.80;100.00;101319.28;5075608;28;20032;-35
2023/10/23 08:51:32;;;;;;;;;;;;;;;9.95;100.00;101321.72;5076314;28;20029;-35
2023/10/23 08:54:07;;;;;;;8.13;4.93;;;;;;;10.01;100.00;101318.16;5075351;28;20352;-35
2023/10/23 08:56:39;;;;;;;9.93;5.75;;;;;;;10.08;100.00;101318.13;5075747;28;20059;-35
2023/10/23 08:59:05;;;;;;;7.72;5.40;;;;;;;10.14;100.00;101319.13;5075673;28;20063;-35
2023/10/23 09:01:32;;;;;;;9.20;6.13;;;;;;;10.18;100.00;101325.75;5075790;28;20071;-35
2023/10/23 09:03:58;;;;;;;7.78;4.70;;;;;;;10.23;100.00;101315.97;5075245;28;20031;-35
2023/10/23 09:06:23;;;;;;;10.15;5.25;;;;;;;10.26;100.00;101320.16;5075578;28;20488;-35
2023/10/23 09:08:49;;;;;;;8.10;5.10;;;;;;;10.28;100.00;101318.03;5075262;28;20045;-35
2023/10/23 09:11:14;;;;;;;7.20;5.25;;;;;;;10.29;100.00;101307.00;5075710;28;20765;-35
2023/10/23 09:13:41;;;;;;;7.30;4.93;;;;;;;10.46;100.00;101304.63;5074834;28;20056;-35
2023/10/23 09:16:08;;;;;;;9.40;5.53;;;;;;;10.55;100.00;101299.78;5075606;28;20032;-35
2023/10/23 09:18:42;;;;;;;9.77;5.38;;;;;;;10.58;100.00;101300.16;5075150;28;20029;-35
2023/10/23 09:21:08;;;;;;;9.07;5.53;;;;;;;10.67;100.00;101302.59;5075825;28;20035;-35
2023/10/23 09:23:34;;;;;;;15.38;6.13;;;;;;;10.73;100.00;101299.00;5075390;28;20048;-35
2023/10/23 09:26:00;;;;;;;9.48;5.38;;;;;;;10.73;100.00;101289.00;5075183;28;20096;-35
2023/10/23 09:28:29;;;;;;;9.15;5.00;;;;;;;10.85;100.00;101302.66;5074790;28;20032;-35
2023/10/23 09:30:55;;;;;;;10.25;4.65;;;;;;;10.95;100.00;101297.56;5074756;28;20025;-35
2023/10/23 09:33:22;;;;;;;13.68;5.25;;;;;;;10.99;100.00;101289.84;5074730;28;20036;-35
2023/10/23 09:35:47;;;;;;;8.57;5.15;;;;;;;11.01;100.00;101298.53;5075513;28;20029;-35
2023/10/23 09:38:16;;;;;;;10.60;5.80;;;;;;;11.03;100.00;101288.34;5075074;28;20067;-35
2023/10/23 09:40:44;;;;;;;14.75;5.70;;;;;;;11.04;100.00;101285.41;5074752;28;20646;-35
2023/10/23 09:43:14;;;;;;;9.10;4.95;;;;;;;11.08;100.00;101293.91;5074676;28;20025;-35
2023/10/23 09:45:41;;;;;;;9.45;4.68;;;;;;;11.14;100.00;101281.34;5074776;28;20025;-35
2023/10/23 09:48:08;;;;;;;6.82;4.07;;;;;;;11.17;100.00;101270.06;5074106;28;20036;-35
2023/10/23 09:50:36;;;;;;;8.55;4.20;;;;;;;11.15;100.00;101272.19;5074328;28;20051;-35
2023/10/23 09:53:03;;;;;;;10.25;3.85;;;;;;;11.23;100.00;101271.91;5074112;28;20028;-35
2023/10/23 09:55:31;;;;;;;11.30;4.20;;;;;;;11.27;100.00;101282.06;5075090;28;20445;-36
2023/10/23 09:58:03;;;;;;;10.40;4.53;;;;;;;11.31;100.00;101271.56;5074324;28;20049;-35
2023/10/23 10:00:31;;;;;;;9.05;3.90;;;;;;;11.26;100.00;101266.00;5074214;28;20522;-35
2023/10/23 10:03:02;;;;;;;8.38;4.20;;;;;;;11.31;100.00;101266.16;5074147;28;20035;-35
2023/10/23 10:05:36;;;;;;;9.82;3.45;;;;;;;11.38;100.00;101272.34;5074089;28;20438;-36
2023/10/23 10:08:04;;;;;;;8.45;4.20;;;;;;;11.41;100.00;101273.75;5074325;28;20039;-35
2023/10/23 10:10:30;;;;;;;7.78;3.78;;;;;;;11.43;100.00;101269.78;5074107;28;20090;-35
2023/10/23 10:12:56;;;;;;;9.80;4.00;;;;;;;11.48;100.00;101272.63;5073980;28;20415;-35
2023/10/23 10:15:22;;;;;;;9.23;3.92;;;;;;;11.50;100.00;101265.09;5074006;28;20020;-35
2023/10/23 10:17:49;;;;;;;9.98;3.45;;;;;;;11.56;100.00;101264.19;5073517;28;20029;-36
2023/10/23 10:20:19;;;;;;;12.65;4.20;;;;;;;11.59;100.00;101258.31;5073909;28;20028;-36
2023/10/23 10:22:56;;;;;;;7.50;3.78;;;;;;;11.68;100.00;101261.56;5073772;28;20033;-35
2023/10/23 10:25:23;;;;;;;6.68;3.60;;;;;;;11.72;100.00;101256.53;5074050;28;20457;-35
2023/10/23 10:27:58;;;;;;;8.13;3.90;;;;;;;11.79;100.00;101257.25;5073481;28;20035;-35
2023/10/23 10:30:41;;;;;;;10.05;3.67;;;;;;;11.85;100.00;101256.34;5074590;28;20028;-35
2023/10/23 10:33:08;;;;;;;10.10;3.78;;;;;;;11.78;100.00;101234.75;5074544;28;20047;-36
2023/10/23 10:35:34;;;;;;;9.23;3.88;;;;;;;11.94;100.00;101252.28;5073912;28;20457;-36
2023/10/23 10:38:00;;;;;;;7.38;3.60;;;;;;;11.94;100.00;101227.88;5073255;28;20036;-35
2023/10/23 10:40:25;;;;;;;10.18;4.70;;;;;;;12.05;100.00;101237.94;5073893;28;20127;-35
2023/10/23 10:42:51;;;;;;;9.95;3.50;;;;;;;12.07;100.00;101237.72;5073539;28;20453;-36
2023/10/23 10:45:17;;;;;;;8.10;3.63;;;;;;;12.05;100.00;101220.84;5073613;28;20170;-35
2023/10/23 10:47:54;;;;;;;7.07;3.92;;;;;;;12.19;100.00;101233.13;5073523;28;20372;-36
2023/10/23 10:50:32;;;;;;;9.68;3.55;;;;;;;12.22;100.00;101226.44;5074061;28;20093;-36
2023/10/23 10:53:02;;;;;;;10.73;4.03;;;;;;;12.25;100.00;101225.94;5073291;28;20170;-36
2023/10/23 10:55:28;;;;;;;9.90;3.65;;;;;;;12.23;100.00;101223.47;5073423;28;20116;-35
2023/10/23 10:57:54;;;;;;;10.05;3.85;;;;;;;12.28;100.00;101215.47;5073833;28;20135;-36
2023/10/23 11:00:22;;;;;;;11.93;3.92;;;;;;;12.32;100.00;101207.72;5073940;28;20353;-35
2023/10/23 11:02:48;;;;;;;9.57;4.30;;;;;;;12.38;100.00;101207.59;5073343;28;20033;-36
2023/10/23 11:05:14;;;;;;;10.57;3.90;;;;;;;12.32;100.00;101191.44;5073461;28;20035;-36
2023/10/23 11:07:39;;;;;;;13.07;4.60;;;;;;;12.44;100.00;101192.25;5073603;28;20365;-35
2023/10/23 11:10:06;;;;;;;13.63;4.22;;;;;;;12.43;100.00;101187.91;5073576;28;20040;-35
2023/10/23 11:12:31;;;;;;;16.00;4.03;;;;;;;12.47;100.00;101189.09;5074007;28;20052;-35
2023/10/23 11:14:57;;;;;;;8.80;3.50;;;;;;;12.50;100.00;101185.09;5073819;28;20166;-36
2023/10/23 11:17:23;;;;;;;9.45;4.20;;;;;;;12.57;100.00;101183.91;5072881;28;20026;-36
2023/10/23 11:19:48;;;;;;;9.00;3.70;;;;;;;12.59;100.00;101164.66;5073547;28;20417;-36